Time;durP1;ratioP1;P1;durP2;ratioP2;P2;SDS_P1;SDS_P2;PMS_P1;PMS_P2;Temp;Humidity;BMP_temperature;BMP_pressure;BME280_temperature;BME280_humidity;BME280_pressure;Samples;Min_cycle;Max_cycle;Signal;HPM_P1;HPM_P2
2023/06/16 00:00:09;;;;;;;;;0.00;0.00;;;;;-146.67;100.00;57155.34;5024445;28;10233;-78
2023/06/16 00:02:34;;;;;;;;;3.00;3.00;;;;;-146.67;100.00;57155.34;5041283;28;8803;-78
2023/06/16 00:05:01;;;;;;;;;0.00;0.00;;;;;-146.67;100.00;57155.34;5042635;28;8894;-78
2023/06/16 00:07:33;;;;;;;;;0.00;0.00;;;;;-146.67;100.00;57155.34;5042768;28;9819;-78
2023/06/16 00:09:59;;;;;;;;;9.00;9.00;;;;;-146.67;100.00;57155.34;5024062;28;8821;-78
2023/06/16 00:12:24;;;;;;;;;0.00;0.00;;;;;-146.67;100.00;57155.34;5043101;28;8813;-77
2023/06/16 00:14:50;;;;;;;;;0.00;0.00;;;;;-146.67;100.00;57155.34;5042234;28;8799;-78
2023/06/16 00:17:16;;;;;;;;;0.00;0.00;;;;;-146.67;100.00;57155.34;5024502;28;8941;-78
2023/06/16 00:19:41;;;;;;;;;0.00;0.00;;;;;-146.67;100.00;57155.34;5042660;28;8837;-78
2023/06/16 00:22:07;;;;;;;;;0.00;0.00;;;;;-146.67;100.00;57155.34;5022994;28;8857;-78
2023/06/16 00:24:33;;;;;;;;;0.00;0.00;;;;;-146.67;100.00;57155.34;5021295;28;8818;-78
2023/06/16 00:26:58;;;;;;;;;0.00;0.00;;;;;-146.67;100.00;57155.34;5036708;28;8827;-78
2023/06/16 00:29:23;;;;;;;;;0.00;0.00;;;;;-146.67;100.00;57155.34;5040617;28;10428;-78
2023/06/16 00:31:49;;;;;;;;;0.00;0.00;;;;;-146.67;100.00;57155.34;5041179;28;8798;-78
2023/06/16 00:34:15;;;;;;;;;0.00;0.00;;;;;-146.67;100.00;57155.34;5039927;28;8839;-78
2023/06/16 00:36:40;;;;;;;;;0.00;0.00;;;;;-146.67;100.00;57155.34;5024582;28;8818;-77
2023/06/16 00:39:05;;;;;;;;;0.00;0.00;;;;;-146.67;100.00;57155.34;5041275;28;8877;-78
2023/06/16 00:41:31;;;;;;;;;0.00;0.00;;;;;-146.67;100.00;57155.34;5042773;28;8795;-78
2023/06/16 00:43:56;;;;;;;;;0.00;0.00;;;;;-146.67;100.00;57155.34;5041717;28;8826;-78
2023/06/16 00:46:31;;;;;;;;;0.00;0.00;;;;;-146.67;100.00;57155.34;5042684;28;8841;-78
2023/06/16 00:48:58;;;;;;;;;0.00;0.00;;;;;-146.67;100.00;57155.34;5023958;28;8751;-78
2023/06/16 00:51:26;;;;;;;;;0.00;0.00;;;;;-146.67;100.00;57155.34;5041087;28;8755;-78
2023/06/16 00:53:52;;;;;;;;;1.00;1.00;;;;;-146.67;100.00;57155.34;5024371;28;8762;-78
2023/06/16 00:56:21;;;;;;;;;0.00;0.00;;;;;-146.67;100.00;57155.34;5040959;28;8778;-78
2023/06/16 00:58:50;;;;;;;;;0.00;0.00;;;;;-146.67;100.00;57155.34;5024075;28;10260;-78
2023/06/16 01:01:15;;;;;;;;;0.00;0.00;;;;;-146.67;100.00;57155.34;5021064;28;8750;-77
2023/06/16 01:03:41;;;;;;;;;0.00;0.00;;;;;-146.67;100.00;57155.34;5004074;28;8817;-78
2023/06/16 01:06:28;;;;;;;;;0.00;0.00;;;;;-146.67;100.00;57155.34;5021079;28;8817;-78
2023/06/16 01:09:06;;;;;;;;;0.00;0.00;;;;;-146.67;100.00;57155.34;5023213;28;9972;-78
2023/06/16 01:11:47;;;;;;;;;0.00;0.00;;;;;-146.67;100.00;57155.34;5024263;28;8832;-77
2023/06/16 01:14:20;;;;;;;;;0.00;0.00;;;;;-146.67;100.00;57155.34;5040520;28;8744;-77
2023/06/16 01:16:47;;;;;;;;;0.00;0.00;;;;;-146.67;100.00;57155.34;5023945;28;8754;-77
2023/06/16 01:19:28;;;;;;;;;0.00;0.00;;;;;-146.67;100.00;57155.34;5020448;28;10245;-78
2023/06/16 01:22:03;;;;;;;;;0.00;0.00;;;;;-146.67;100.00;57155.34;5024615;28;8805;-78
2023/06/16 01:24:32;;;;;;;;;0.00;0.00;;;;;-146.67;100.00;57155.34;5004407;28;8822;-78
2023/06/16 01:26:59;;;;;;;;;0.00;0.00;;;;;-146.67;100.00;57155.34;5021742;28;8893;-78
2023/06/16 01:29:26;;;;;;;;;0.00;0.00;;;;;-146.67;100.00;57155.34;5004142;28;8836;-78
2023/06/16 01:31:54;;;;;;;;;0.00;0.00;;;;;-146.67;100.00;57155.34;5021221;28;8760;-78
2023/06/16 01:34:20;;;;;;;;;0.00;0.00;;;;;-146.67;100.00;57155.34;5043068;28;8835;-78
2023/06/16 01:36:47;;;;;;;;;0.00;0.00;;;;;-146.67;100.00;57155.34;5045415;28;8743;-77
2023/06/16 01:39:15;;;;;;;;;11.67;9.33;;;;;-146.67;100.00;57155.34;5044318;28;8850;-77
2023/06/16 01:41:41;;;;;;;;;0.00;0.00;;;;;-146.67;100.00;57155.34;5026799;28;8807;-77
2023/06/16 01:44:07;;;;;;;;;0.00;0.00;;;;;-146.67;100.00;57155.34;5044893;28;8889;-77
2023/06/16 01:46:34;;;;;;;;;0.00;0.00;;;;;-146.67;100.00;57155.34;5027116;28;8748;-77
2023/06/16 01:49:00;;;;;;;;;0.00;0.00;;;;;-146.67;100.00;57155.34;5045142;28;9441;-77
2023/06/16 01:51:26;;;;;;;;;0.00;0.00;;;;;-146.67;100.00;57155.34;5044963;28;8790;-78
2023/06/16 01:53:52;;;;;;;;;0.00;0.00;;;;;-146.67;100.00;57155.34;5045043;28;8787;-78
2023/06/16 01:56:18;;;;;;;;;0.00;0.00;;;;;-146.67;100.00;57155.34;5044401;28;8814;-78
2023/06/16 01:58:44;;;;;;;;;0.00;0.00;;;;;-146.67;100.00;57155.34;5044694;28;8811;-77
2023/06/16 02:01:25;;;;;;;;;0.00;0.00;;;;;-146.67;100.00;57155.34;5044955;28;8845;-77
2023/06/16 02:03:56;;;;;;;;;0.00;0.00;;;;;-146.67;100.00;57155.34;5022800;28;9799;-78
2023/06/16 02:06:27;;;;;;;;;0.00;0.00;;;;;-146.67;100.00;57155.34;5007199;28;8769;-77
2023/06/16 02:08:55;;;;;;;;;0.00;0.00;;;;;-146.67;100.00;57155.34;5041464;28;10170;-77
2023/06/16 02:11:21;;;;;;;;;0.00;0.00;;;;;-146.67;100.00;57155.34;5026386;28;8775;-78
2023/06/16 02:13:46;;;;;;;;;0.00;0.00;;;;;-146.67;100.00;57155.34;5026329;28;8825;-77
2023/06/16 02:16:12;;;;;;;;;0.00;0.00;;;;;-146.67;100.00;57155.34;5026669;28;8811;-78
2023/06/16 02:18:38;;;;;;;;;0.00;0.00;;;;;-146.67;100.00;57155.34;5044047;28;8913;-77
2023/06/16 02:21:04;;;;;;;;;0.00;0.00;;;;;-146.67;100.00;57155.34;5026803;28;8821;-78
2023/06/16 02:23:29;;;;;;;;;0.00;0.00;;;;;-146.67;100.00;57155.34;5026160;28;9571;-78
2023/06/16 02:25:55;;;;;;;;;0.00;0.00;;;;;-146.67;100.00;57155.34;5025930;28;8836;-77
2023/06/16 02:28:20;;;;;;;;;0.00;0.00;;;;;-146.67;100.00;57155.34;5026323;28;9867;-78
2023/06/16 02:30:45;;;;;;;;;14.75;12.50;;;;;-146.67;100.00;57155.34;5016089;28;62072;-77
2023/06/16 02:33:12;;;;;;;;;0.00;0.00;;;;;-146.67;100.00;57155.34;5044054;28;8841;-78
2023/06/16 02:35:38;;;;;;;;;0.00;0.00;;;;;-146.67;100.00;57155.34;5025784;28;8787;-78
2023/06/16 02:38:04;;;;;;;;;0.00;0.00;;;;;-146.67;100.00;57155.34;5016416;28;61847;-78
2023/06/16 02:40:29;;;;;;;;;0.00;0.00;;;;;-146.67;100.00;57155.34;5025710;28;8838;-78
2023/06/16 02:42:55;;;;;;;;;1.00;1.00;;;;;-146.67;100.00;57155.34;5043213;28;8803;-78
2023/06/16 02:45:20;;;;;;;;;0.00;0.00;;;;;-146.67;100.00;57155.34;5041917;28;8925;-78
2023/06/16 02:47:46;;;;;;;;;0.00;0.00;;;;;-146.67;100.00;57155.34;5025398;28;9617;-78
2023/06/16 02:50:11;;;;;;;;;0.00;0.00;;;;;-146.67;100.00;57155.34;5026570;28;8814;-78
2023/06/16 02:52:36;;;;;;;;;0.00;0.00;;;;;-146.67;100.00;57155.34;5042281;28;8917;-78
2023/06/16 02:55:03;;;;;;;;;0.00;0.00;;;;;-146.67;100.00;57155.34;5043379;28;8841;-78
2023/06/16 02:57:29;;;;;;;;;0.00;0.00;;;;;-146.67;100.00;57155.34;5026471;28;10177;-78
2023/06/16 02:59:55;;;;;;;;;0.00;0.00;;;;;-146.67;100.00;57155.34;5042341;28;8815;-78
2023/06/16 03:02:21;;;;;;;;;0.00;0.00;;;;;-146.67;100.00;57155.34;5026148;28;8795;-77
2023/06/16 03:04:47;;;;;;;;;0.00;0.00;;;;;-146.67;100.00;57155.34;5043458;28;8877;-78
2023/06/16 03:07:12;;;;;;;;;0.00;0.00;;;;;-146.67;100.00;57155.34;5022795;28;10146;-78
2023/06/16 03:09:38;;;;;;;;;0.00;0.00;;;;;-146.67;100.00;57155.34;5036259;28;9366;-78
2023/06/16 03:12:04;;;;;;;;;0.00;0.00;;;;;-146.67;100.00;57155.34;5025519;28;8811;-77
2023/06/16 03:14:29;;;;;;;;;0.00;0.00;;;;;-146.67;100.00;57155.34;5042557;28;8806;-77
2023/06/16 03:16:56;;;;;;;;;0.00;0.00;;;;;-146.67;100.00;57155.34;5025156;28;10105;-78
2023/06/16 03:19:21;;;;;;;;;0.00;0.00;;;;;-146.67;100.00;57155.34;5034515;28;8766;-77
2023/06/16 03:21:50;;;;;;;;;0.00;0.00;;;;;-146.67;100.00;57155.34;5040224;28;8823;-78
2023/06/16 03:24:19;;;;;;;;;0.00;0.00;;;;;-146.67;100.00;57155.34;5005637;28;9795;-78
2023/06/16 03:26:46;;;;;;;;;0.00;0.00;;;;;-146.67;100.00;57155.34;5034481;28;8755;-78
2023/06/16 03:29:12;;;;;;;;;0.00;0.00;;;;;-146.67;100.00;57155.34;5025636;28;8834;-77
2023/06/16 03:31:38;;;;;;;;;0.00;0.00;;;;;-146.67;100.00;57155.34;5043851;28;8865;-78
2023/06/16 03:34:04;;;;;;;;;0.00;0.00;;;;;-146.67;100.00;57155.34;5042455;28;8881;-77
2023/06/16 03:36:36;;;;;;;;;0.00;0.00;;;;;-146.67;100.00;57155.34;5043640;28;8786;-78
2023/06/16 03:39:05;;;;;;;;;0.00;0.00;;;;;-146.67;100.00;57155.34;5024217;28;8775;-78
2023/06/16 03:41:31;;;;;;;;;0.00;0.00;;;;;-146.67;100.00;57155.34;5043683;28;8841;-77
2023/06/16 03:43:56;;;;;;;;;0.00;0.00;;;;;-146.67;100.00;57155.34;5043141;28;8787;-78
2023/06/16 03:46:21;;;;;;;;;0.00;0.00;;;;;-146.67;100.00;57155.34;5043851;28;8779;-77
2023/06/16 03:48:47;;;;;;;;;0.00;0.00;;;;;-146.67;100.00;57155.34;5043010;28;8973;-77
2023/06/16 03:51:12;;;;;;;;;0.00;0.00;;;;;-146.67;100.00;57155.34;5022175;28;8837;-77
2023/06/16 03:53:37;;;;;;;;;0.00;0.00;;;;;-146.67;100.00;57155.34;5023235;28;8790;-78
2023/06/16 03:56:03;;;;;;;;;0.00;0.00;;;;;-146.67;100.00;57155.34;5022023;28;10138;-78
2023/06/16 03:58:29;;;;;;;;;0.00;0.00;;;;;-146.67;100.00;57155.34;5026741;28;8912;-77
2023/06/16 04:00:56;;;;;;;;;0.00;0.00;;;;;-146.67;100.00;57155.34;5025506;28;9223;-77
2023/06/16 04:03:22;;;;;;;;;0.00;0.00;;;;;-146.67;100.00;57155.34;5021217;28;8826;-77
2023/06/16 04:05:47;;;;;;;;;0.00;0.00;;;;;-146.67;100.00;57155.34;5026519;28;8891;-77
2023/06/16 04:08:13;;;;;;;;;0.00;0.00;;;;;-146.67;100.00;57155.34;5023656;28;8838;-77
2023/06/16 04:10:38;;;;;;;;;0.00;0.00;;;;;-146.67;100.00;57155.34;5041509;28;8799;-78
2023/06/16 04:13:04;;;;;;;;;0.00;0.00;;;;;-146.67;100.00;57155.34;5042673;28;8823;-78
2023/06/16 04:15:29;;;;;;;;;0.00;0.00;;;;;-146.67;100.00;57155.34;5024883;28;9951;-78
2023/06/16 04:17:55;;;;;;;;;0.00;0.00;;;;;-146.67;100.00;57155.34;5021596;28;8851;-77
2023/06/16 04:20:21;;;;;;;;;0.00;0.00;;;;;-146.67;100.00;57155.34;5014744;28;8992;-77
2023/06/16 04:22:46;;;;;;;;;0.00;0.00;;;;;-146.67;100.00;57155.34;5005578;28;8789;-78
2023/06/16 04:25:12;;;;;;;;;0.00;0.00;;;;;-146.67;100.00;57155.34;5037151;28;9939;-77
2023/06/16 04:27:38;;;;;;;;;0.00;0.00;;;;;-146.67;100.00;57155.34;5022030;28;9182;-77
2023/06/16 04:30:05;;;;;;;;;0.00;0.00;;;;;-146.67;100.00;57155.34;5023064;28;10143;-77
2023/06/16 04:32:34;;;;;;;;;0.00;0.00;;;;;-146.67;100.00;57155.34;5021173;28;8910;-78
2023/06/16 04:35:05;;;;;;;;;0.00;0.00;;;;;-146.67;100.00;57155.34;5022473;28;8919;-78
2023/06/16 04:37:31;;;;;;;;;0.00;0.00;;;;;-146.67;100.00;57155.34;5024043;28;8868;-77
2023/06/16 04:39:57;;;;;;;;;0.00;0.00;;;;;-146.67;100.00;57155.34;5042092;28;8823;-78
2023/06/16 04:42:22;;;;;;;;;0.00;0.00;;;;;-146.67;100.00;57155.34;5024834;28;8815;-77
2023/06/16 04:44:48;;;;;;;;;0.00;0.00;;;;;-146.67;100.00;57155.34;5024767;28;9988;-77
2023/06/16 04:47:13;;;;;;;;;0.00;0.00;;;;;-146.67;100.00;57155.34;5040532;28;8925;-78
2023/06/16 04:49:39;;;;;;;;;0.00;0.00;;;;;-146.67;100.00;57155.34;5042100;28;8834;-78
2023/06/16 04:52:09;;;;;;;;;0.00;0.00;;;;;-146.67;100.00;57155.34;5024642;28;8818;-77
2023/06/16 04:54:34;;;;;;;;;0.00;0.00;;;;;-146.67;100.00;57155.34;5024355;28;10250;-78
2023/06/16 04:56:59;;;;;;;;;0.00;0.00;;;;;-146.67;100.00;57155.34;5024756;28;8819;-77
2023/06/16 04:59:25;;;;;;;;;0.00;0.00;;;;;-146.67;100.00;57155.34;5022196;28;8841;-77
2023/06/16 05:01:51;;;;;;;;;0.00;0.00;;;;;-146.67;100.00;57155.34;5024188;28;8791;-78
2023/06/16 05:04:17;;;;;;;;;0.00;0.00;;;;;-146.67;100.00;57155.34;5041570;28;9554;-78
2023/06/16 05:06:43;;;;;;;;;0.00;0.00;;;;;-146.67;100.00;57155.34;5040544;28;8747;-78
2023/06/16 05:09:09;;;;;;;;;0.00;0.00;;;;;-146.67;100.00;57155.34;5026393;28;8817;-80
2023/06/16 05:11:40;;;;;;;;;0.00;0.00;;;;;-146.67;100.00;57155.34;5036996;28;8823;-82
2023/06/16 05:14:05;;;;;;;;;0.00;0.00;;;;;-146.67;100.00;57155.34;5027610;28;10127;-81
2023/06/16 05:16:31;;;;;;;;;0.00;0.00;;;;;-146.67;100.00;57155.34;5026992;28;8807;-78
2023/06/16 05:18:56;;;;;;;;;0.00;0.00;;;;;-146.67;100.00;57155.34;5024972;28;8821;-78
2023/06/16 05:21:25;;;;;;;;;0.00;0.00;;;;;-146.67;100.00;57155.34;5012336;28;8840;-78
2023/06/16 05:23:54;;;;;;;;;0.00;0.00;;;;;-146.67;100.00;57155.34;5043251;28;9040;-77
2023/06/16 05:26:21;;;;;;;;;1.00;1.00;;;;;-146.67;100.00;57155.34;5044073;28;8829;-79
2023/06/16 05:28:46;;;;;;;;;0.00;0.00;;;;;-146.67;100.00;57155.34;5045278;28;8755;-80
2023/06/16 05:31:13;;;;;;;;;0.00;0.00;;;;;-146.67;100.00;57155.34;5044349;28;8869;-79
2023/06/16 05:33:38;;;;;;;;;0.00;0.00;;;;;-146.67;100.00;57155.34;5043310;28;8763;-77
2023/06/16 05:36:04;;;;;;;;;0.00;0.00;;;;;-146.67;100.00;57155.34;5044072;28;8886;-77
2023/06/16 05:38:29;;;;;;;;;0.00;0.00;;;;;-146.67;100.00;57155.34;5043138;28;9575;-79
2023/06/16 05:40:55;;;;;;;;;0.00;0.00;;;;;-146.67;100.00;57155.34;5043876;28;8839;-82
2023/06/16 05:43:20;;;;;;;;;0.00;0.00;;;;;-146.67;100.00;57155.34;5044538;28;8917;-80
2023/06/16 05:45:46;;;;;;;;;0.00;0.00;;;;;-146.67;100.00;57155.34;5039885;28;8806;-79
2023/06/16 05:48:11;;;;;;;;;0.00;0.00;;;;;-146.67;100.00;57155.34;5042521;28;8843;-79
2023/06/16 05:50:37;;;;;;;;;0.00;0.00;;;;;-146.67;100.00;57155.34;5025660;28;8818;-78
2023/06/16 05:53:04;;;;;;;;;0.00;0.00;;;;;-146.67;100.00;57155.34;5043579;28;8880;-78
2023/06/16 05:55:30;;;;;;;;;0.00;0.00;;;;;-146.67;100.00;57155.34;5026843;28;8883;-78
2023/06/16 05:57:55;;;;;;;;;0.00;0.00;;;;;-146.67;100.00;57155.34;5026857;28;8823;-78
2023/06/16 06:00:21;;;;;;;;;0.00;0.00;;;;;-146.67;100.00;57155.34;5045057;28;8803;-79
2023/06/16 06:02:46;;;;;;;;;0.00;0.00;;;;;-146.67;100.00;57155.34;5018049;28;10001;-78
2023/06/16 06:05:12;;;;;;;;;0.00;0.00;;;;;-146.67;100.00;57155.34;5044569;28;8811;-79
2023/06/16 06:07:37;;;;;;;;;0.00;0.00;;;;;-146.67;100.00;57155.34;5023291;28;8967;-78
2023/06/16 06:10:03;;;;;;;;;0.00;0.00;;;;;-146.67;100.00;57155.34;5006355;28;8829;-78
2023/06/16 06:12:29;;;;;;;;;0.00;0.00;;;;;-146.67;100.00;57155.34;5021627;28;11186;-78
2023/06/16 06:14:54;;;;;;;;;0.00;0.00;;;;;-146.67;100.00;57155.34;5026387;28;8819;-78
2023/06/16 06:17:19;;;;;;;;;0.00;0.00;;;;;-146.67;100.00;57155.34;5043082;28;8889;-78
2023/06/16 06:19:45;;;;;;;;;0.00;0.00;;;;;-146.67;100.00;57155.34;5039265;28;8853;-78
2023/06/16 06:22:10;;;;;;;;;0.00;0.00;;;;;-146.67;100.00;57155.34;5043846;28;8830;-79
2023/06/16 06:24:37;;;;;;;;;0.00;0.00;;;;;-146.67;100.00;57155.34;5026156;28;8853;-78
2023/06/16 06:27:02;;;;;;;;;0.00;0.00;;;;;-146.67;100.00;57155.34;5026382;28;8806;-78
2023/06/16 06:29:28;;;;;;;;;0.00;0.00;;;;;-146.67;100.00;57155.34;5044153;28;8818;-78
2023/06/16 06:31:53;;;;;;;;;0.00;0.00;;;;;-146.67;100.00;57155.34;5025992;28;9973;-78
2023/06/16 06:34:18;;;;;;;;;0.00;0.00;;;;;-146.67;100.00;57155.34;5033102;28;8844;-78
2023/06/16 06:36:47;;;;;;;;;1.00;1.00;;;;;-146.67;100.00;57155.34;5023081;28;8817;-79
2023/06/16 06:39:13;;;;;;;;;0.00;0.00;;;;;-146.67;100.00;57155.34;5005353;28;8778;-82
2023/06/16 06:41:40;;;;;;;;;0.00;0.00;;;;;-146.67;100.00;57155.34;5031463;28;8972;-77
2023/06/16 06:44:05;;;;;;;;;0.00;0.00;;;;;-146.67;100.00;57155.34;5042695;28;8825;-78
2023/06/16 06:46:31;;;;;;;;;0.00;0.00;;;;;-146.67;100.00;57155.34;5027262;28;8834;-77
2023/06/16 06:48:57;;;;;;;;;0.00;0.00;;;;;-146.67;100.00;57155.34;5022681;28;8871;-77
2023/06/16 06:51:23;;;;;;;;;0.00;0.00;;;;;-146.67;100.00;57155.34;5042091;28;8818;-78
2023/06/16 06:53:48;;;;;;;;;0.00;0.00;;;;;-146.67;100.00;57155.34;5043680;28;8811;-78
2023/06/16 06:56:15;;;;;;;;;0.00;0.00;;;;;-146.67;100.00;57155.34;5043555;28;8803;-78
2023/06/16 06:58:41;;;;;;;;;0.00;0.00;;;;;-146.67;100.00;57155.34;5025244;28;8818;-78
2023/06/16 07:01:07;;;;;;;;;0.00;0.00;;;;;-146.67;100.00;57155.34;5023080;28;8823;-78
2023/06/16 07:03:32;;;;;;;;;0.00;0.00;;;;;-146.67;100.00;57155.34;5026422;28;8829;-78
2023/06/16 07:05:57;;;;;;;;;0.00;0.00;;;;;-146.67;100.00;57155.34;5025917;28;8803;-78
2023/06/16 07:08:23;;;;;;;;;0.00;0.00;;;;;-146.67;100.00;57155.34;5025044;28;8826;-78
2023/06/16 07:10:48;;;;;;;;;0.00;0.00;;;;;-146.67;100.00;57155.34;5044014;28;9472;-77
2023/06/16 07:13:14;;;;;;;;;0.00;0.00;;;;;-146.67;100.00;57155.34;5025596;28;8818;-78
2023/06/16 07:15:39;;;;;;;;;0.00;0.00;;;;;-146.67;100.00;57155.34;5025026;28;8849;-77
2023/06/16 07:18:05;;;;;;;;;0.00;0.00;;;;;-146.67;100.00;57155.34;5022089;28;8841;-78
2023/06/16 07:20:30;;;;;;;;;0.00;0.00;;;;;-146.67;100.00;57155.34;5034800;28;8889;-77
2023/06/16 07:22:56;;;;;;;;;0.00;0.00;;;;;-146.67;100.00;57155.34;5025574;28;8865;-78
2023/06/16 07:25:21;;;;;;;;;0.00;0.00;;;;;-146.67;100.00;57155.34;5041201;28;8802;-78
2023/06/16 07:27:47;;;;;;;;;0.00;0.00;;;;;-146.67;100.00;57155.34;5043247;28;8827;-78
2023/06/16 07:30:13;;;;;;;;;0.00;0.00;;;;;-146.67;100.00;57155.34;5042026;28;8839;-77
2023/06/16 07:32:41;;;;;;;;;0.00;0.00;;;;;-146.67;100.00;57155.34;5024463;28;9187;-77
2023/06/16 07:35:08;;;;;;;;;0.00;0.00;;;;;-146.67;100.00;57155.34;5022276;28;8823;-78
2023/06/16 07:37:33;;;;;;;;;0.00;0.00;;;;;-146.67;100.00;57155.34;5024578;28;8933;-77
2023/06/16 07:39:59;;;;;;;;;0.00;0.00;;;;;-146.67;100.00;57155.34;5020270;28;9890;-78
2023/06/16 07:42:25;;;;;;;;;0.00;0.00;;;;;-146.67;100.00;57155.34;5019192;28;9646;-78
2023/06/16 07:44:51;;;;;;;;;0.00;0.00;;;;;-146.67;100.00;57155.34;5020910;28;8856;-78
2023/06/16 07:47:17;;;;;;;;;0.00;0.00;;;;;-146.67;27.69;73723.38;5023878;28;61848;-77
2023/06/16 07:49:42;;;;;;;;;0.00;0.00;;;;;-146.67;26.93;73727.34;4972508;28;61985;-78
2023/06/16 07:52:09;;;;;;;;;0.00;0.00;;;;;-146.67;27.47;73717.38;4985594;28;61785;-78
2023/06/16 07:54:34;;;;;;;;;0.00;0.00;;;;;-146.67;27.25;73735.34;4981342;28;61932;-78
2023/06/16 07:57:00;;;;;;;;;0.00;0.00;;;;;-146.67;27.39;73749.31;4981575;28;62007;-78
2023/06/16 07:59:26;;;;;;;;;0.00;0.00;;;;;-146.67;100.00;57155.34;5004295;28;64460;-77
2023/06/16 08:01:52;;;;;;;;;0.00;0.00;;;;;-146.67;100.00;57155.34;5019335;28;8874;-78
2023/06/16 08:04:17;;;;;;;;;0.00;0.00;;;;;-146.67;100.00;57155.34;5021754;28;8925;-78
2023/06/16 08:06:43;;;;;;;;;0.00;0.00;;;;;-146.67;27.64;73699.41;5014558;28;61193;-78
2023/06/16 08:09:10;;;;;;;;;0.00;0.00;;;;;-146.67;100.00;57155.34;4997696;28;61827;-78
2023/06/16 08:11:35;;;;;;;;;0.00;0.00;;;;;-146.67;100.00;57155.34;5023624;28;10214;-78
2023/06/16 08:14:01;;;;;;;;;0.00;0.00;;;;;-146.67;100.00;57155.34;5034275;28;8832;-78
2023/06/16 08:16:27;;;;;;;;;0.00;0.00;;;;;-146.67;100.00;57155.34;5020524;28;42391;-77
2023/06/16 08:18:55;;;;;;;;;0.00;0.00;;;;;-146.67;100.00;57155.34;5025732;28;10110;-77
2023/06/16 08:21:20;;;;;;;;;0.00;0.00;;;;;-146.67;100.00;57155.34;5033691;28;61335;-77
2023/06/16 08:23:47;;;;;;;;;0.00;0.00;;;;;-146.67;100.00;57155.34;5021388;28;8846;-77
2023/06/16 08:26:12;;;;;;;;;0.00;0.00;;;;;-146.67;100.00;57155.34;5037195;28;9784;-77
2023/06/16 08:28:40;;;;;;;;;0.00;0.00;;;;;-146.67;100.00;57155.34;5021212;28;8836;-77
2023/06/16 08:31:06;;;;;;;;;0.00;0.00;;;;;-146.67;100.00;57155.34;5021430;28;8785;-77
2023/06/16 08:33:32;;;;;;;;;0.00;0.00;;;;;-146.67;100.00;57155.34;5019649;28;8832;-79
2023/06/16 08:35:58;;;;;;;;;0.00;0.00;;;;;-146.67;100.00;57155.34;5037102;28;8820;-78
2023/06/16 08:38:23;;;;;;;;;0.00;0.00;;;;;-146.67;100.00;57155.34;5036563;28;9966;-78
2023/06/16 08:40:49;;;;;;;;;0.00;0.00;;;;;-146.67;100.00;57155.34;5040665;28;8838;-78
2023/06/16 08:43:16;;;;;;;;;0.00;0.00;;;;;-146.67;100.00;57155.34;5019814;28;8821;-78
2023/06/16 08:45:44;;;;;;;;;0.00;0.00;;;;;-146.67;100.00;57155.34;5041144;28;62065;-77
2023/06/16 08:48:11;;;;;;;;;4.00;4.00;;;;;-146.67;100.00;57155.34;5026742;28;8811;-78
2023/06/16 08:50:37;;;;;;;;;0.00;0.00;;;;;-146.67;100.00;57155.34;5043734;28;8908;-78
2023/06/16 08:53:06;;;;;;;;;0.00;0.00;;;;;-146.67;100.00;57155.34;5027201;28;8819;-78
2023/06/16 08:55:33;;;;;;;;;0.00;0.00;;;;;-146.67;100.00;57155.34;5043936;28;8826;-78
2023/06/16 08:58:00;;;;;;;;;0.00;0.00;;;;;-146.67;100.00;57155.34;5043122;28;8897;-78
2023/06/16 09:00:27;;;;;;;;;0.00;0.00;;;;;-146.67;100.00;57155.34;5019597;28;61784;-78
2023/06/16 09:02:56;;;;;;;;;0.00;0.00;;;;;-146.67;100.00;57155.34;5045068;28;8924;-79
2023/06/16 09:05:24;;;;;;;;;0.00;0.00;;;;;-146.67;100.00;57155.34;5039507;28;8774;-79
2023/06/16 09:07:50;;;;;;;;;0.00;0.00;;;;;-146.67;100.00;57155.34;5033277;28;9743;-78
2023/06/16 09:10:16;;;;;;;;;0.00;0.00;;;;;-146.67;100.00;57155.34;5042684;28;8866;-79
2023/06/16 09:12:42;;;;;;;;;0.00;0.00;;;;;-146.67;100.00;57155.34;5024682;28;8763;-79
2023/06/16 09:15:10;;;;;;;;;0.00;0.00;;;;;-146.67;100.00;57155.34;5022971;28;8816;-79
2023/06/16 09:17:37;;;;;;;;;0.00;0.00;;;;;-146.67;100.00;57155.34;5039698;28;8791;-79
2023/06/16 09:20:06;;;;;;;;;0.00;0.00;;;;;-146.67;100.00;57155.34;5041595;28;8870;-78
2023/06/16 09:22:32;;;;;;;;;0.00;0.00;;;;;-146.67;100.00;57155.34;5023124;28;8832;-79
2023/06/16 09:25:06;;;;;;;;;0.00;0.00;;;;;-146.67;100.00;57155.34;5039159;28;8940;-79
2023/06/16 09:27:53;;;;;;;;;0.00;0.00;;;;;-146.67;100.00;57155.34;5037800;28;9824;-79
2023/06/16 09:30:20;;;;;;;;;0.00;0.00;;;;;-146.67;100.00;57155.34;5043216;28;8818;-79
2023/06/16 09:32:47;;;;;;;;;0.00;0.00;;;;;-146.67;100.00;57155.34;5042282;28;8802;-82
2023/06/16 09:35:28;;;;;;;;;0.00;0.00;;;;;-146.67;100.00;57155.34;5026223;28;8803;-82
2023/06/16 09:38:00;;;;;;;;;0.00;0.00;;;;;-146.67;100.00;57155.34;5022450;28;10256;-80
2023/06/16 09:40:31;;;;;;;;;0.00;0.00;;;;;-146.67;100.00;57155.34;5037697;28;8818;-79
2023/06/16 09:42:59;;;;;;;;;0.00;0.00;;;;;-146.67;100.00;57155.34;5043978;28;8753;-80
2023/06/16 09:45:31;;;;;;;;;0.00;0.00;;;;;-146.67;100.00;57155.34;5025989;28;8763;-80
2023/06/16 09:48:01;;;;;;;;;0.00;0.00;;;;;-146.67;100.00;57155.34;5043388;28;8810;-80
2023/06/16 09:50:26;;;;;;;;;0.00;0.00;;;;;-146.67;100.00;57155.34;5044308;28;8896;-80
2023/06/16 09:52:54;;;;;;;;;0.00;0.00;;;;;-146.67;100.00;57155.34;5022778;28;8960;-80
2023/06/16 09:55:20;;;;;;;;;0.00;0.00;;;;;-146.67;100.00;57155.34;5036929;28;8925;-80
2023/06/16 09:57:47;;;;;;;;;0.00;0.00;;;;;-146.67;100.00;57155.34;5044042;28;8953;-80
2023/06/16 10:00:17;;;;;;;;;0.00;0.00;;;;;-146.67;100.00;57155.34;5043577;28;8815;-80
2023/06/16 10:02:47;;;;;;;;;0.00;0.00;;;;;-146.67;100.00;57155.34;5039866;28;8776;-77
2023/06/16 10:05:16;;;;;;;;;0.00;0.00;;;;;-146.67;100.00;57155.34;5026107;28;8758;-78
2023/06/16 10:07:55;;;;;;;;;0.00;0.00;;;;;-146.67;100.00;57155.34;5038104;28;9725;-79
2023/06/16 10:10:25;;;;;;;;;0.00;0.00;;;;;-146.67;100.00;57155.34;5018247;28;8832;-80
2023/06/16 10:12:51;;;;;;;;;0.00;0.00;;;;;-146.67;100.00;57155.34;5042010;28;8763;-80
2023/06/16 10:15:21;;;;;;;;;0.00;0.00;;;;;-146.67;100.00;57155.34;5011833;28;9062;-79
2023/06/16 10:17:50;;;;;;;;;0.00;0.00;;;;;-146.67;100.00;57155.34;5011624;28;8889;-81
2023/06/16 10:20:18;;;;;;;;;0.00;0.00;;;;;-146.67;100.00;57155.34;5026115;28;8763;-80
2023/06/16 10:22:46;;;;;;;;;0.00;0.00;;;;;-146.67;100.00;57155.34;5043546;28;8811;-82
2023/06/16 10:25:11;;;;;;;;;0.00;0.00;;;;;-146.67;100.00;57155.34;5040116;28;8842;-81
2023/06/16 10:27:40;;;;;;;;;0.00;0.00;;;;;-146.67;100.00;57155.34;5024371;28;10959;-82
2023/06/16 10:30:16;;;;;;;;;0.00;0.00;;;;;-146.67;100.00;57155.34;5043502;28;8790;-82
2023/06/16 10:32:45;;;;;;;;;0.00;0.00;;;;;-146.67;100.00;57155.34;5021057;28;49635;-83
2023/06/16 10:35:13;;;;;;;;;3.00;3.00;;;;;-146.67;100.00;57155.34;5023914;28;8922;-80
2023/06/16 10:37:38;;;;;;;;;0.00;0.00;;;;;-146.67;100.00;57155.34;5024302;28;10283;-80
2023/06/16 10:40:05;;;;;;;;;0.00;0.00;;;;;-146.67;100.00;57155.34;5042115;28;8842;-80
2023/06/16 10:42:34;;;;;;;;;0.00;0.00;;;;;-146.67;100.00;57155.34;5025638;28;8830;-80
2023/06/16 10:45:22;;;;;;;;;0.00;0.00;;;;;-146.67;100.00;57155.34;5014781;28;9765;-81
2023/06/16 10:47:55;;;;;;;;;0.00;0.00;;;;;-146.67;100.00;57155.34;5031208;28;8817;-79
2023/06/16 10:50:30;;;;;;;;;1.00;1.00;;;;;-146.67;100.00;57155.34;5019014;28;8789;-78
2023/06/16 10:52:55;;;;;;;;;0.00;0.00;;;;;-146.67;100.00;57155.34;5024051;28;8769;-80
2023/06/16 10:55:34;;;;;;;;;0.00;0.00;;;;;-146.67;100.00;57155.34;5025484;28;8822;-80
2023/06/16 10:58:24;;;;;;;;;0.00;0.00;;;;;-146.67;100.00;57155.34;5022052;28;10060;-81
2023/06/16 11:01:15;;;;;;;;;0.00;0.00;;;;;-146.67;100.00;57155.34;5036963;28;8819;-78
2023/06/16 11:03:45;;;;;;;;;0.00;0.00;;;;;-146.67;100.00;57155.34;5030579;28;8759;-77
2023/06/16 11:06:11;;;;;;;;;0.00;0.00;;;;;-146.67;100.00;57155.34;5041782;28;8814;-79
2023/06/16 11:08:54;;;;;;;;;0.00;0.00;;;;;-146.67;100.00;57155.34;5042444;28;8837;-78
2023/06/16 11:11:20;;;;;;;;;0.00;0.00;;;;;-146.67;100.00;57155.34;5021390;28;8840;-76
2023/06/16 11:13:46;;;;;;;;;0.00;0.00;;;;;-146.67;100.00;57155.34;5018453;28;8826;-77
2023/06/16 11:16:12;;;;;;;;;0.00;0.00;;;;;-146.67;100.00;57155.34;5025738;28;8795;-77